Time;durP1;ratioP1;P1;durP2;ratioP2;P2;SDS_P1;SDS_P2;PMS_P1;PMS_P2;Temp;Humidity;BMP_temperature;BMP_pressure;BME280_temperature;BME280_humidity;BME280_pressure;Samples;Min_cycle;Max_cycle;Signal;HPM_P1;HPM_P2
2024/04/06 00:00:46;;;;;;;0.35;0.35;;;;;;;6.86;100.00;99152.13;5128735;28;20137;-64
2024/04/06 00:03:11;;;;;;;0.50;0.50;;;;;;;6.84;100.00;99157.31;5128691;28;20301;-64
2024/04/06 00:05:36;;;;;;;0.40;0.40;;;;;;;6.87;100.00;99169.34;5128797;28;20023;-64
2024/04/06 00:08:02;;;;;;;0.40;0.40;;;;;;;6.85;100.00;99174.53;5127064;28;20031;-64
2024/04/06 00:10:27;;;;;;;0.40;0.40;;;;;;;6.82;100.00;99187.47;5128491;28;20028;-63
2024/04/06 00:12:52;;;;;;;0.40;0.40;;;;;;;6.79;100.00;99190.06;5110038;28;20019;-64
2024/04/06 00:15:18;;;;;;;0.40;0.40;;;;;;;6.76;100.00;99195.25;5128508;28;20016;-64
2024/04/06 00:17:43;;;;;;;0.40;0.40;;;;;;;6.71;100.00;99199.63;5128579;28;20031;-64
2024/04/06 00:20:09;;;;;;;0.40;0.40;;;;;;;6.68;100.00;99198.78;5128313;28;20035;-64
2024/04/06 00:22:34;;;;;;;0.40;0.40;;;;;;;6.62;100.00;99204.03;5128335;28;20038;-64
2024/04/06 00:24:59;;;;;;;0.40;0.40;;;;;;;6.61;100.00;99212.66;5128118;28;20026;-64
2024/04/06 00:27:25;;;;;;;0.47;0.47;;;;;;;6.59;100.00;99218.69;5128342;28;20473;-65
2024/04/06 00:29:51;;;;;;;0.40;0.40;;;;;;;6.53;100.00;99224.75;5128305;28;20030;-65
2024/04/06 00:32:16;;;;;;;0.40;0.40;;;;;;;6.50;100.00;99232.53;5126440;28;20110;-64
2024/04/06 00:34:41;;;;;;;0.40;0.40;;;;;;;6.41;100.00;99224.03;5128387;28;20030;-65
2024/04/06 00:37:08;;;;;;;0.40;0.40;;;;;;;6.44;100.00;99228.28;5128267;28;20106;-65
2024/04/06 00:39:33;;;;;;;0.40;0.40;;;;;;;6.42;100.00;99242.94;5127890;28;20147;-65
2024/04/06 00:41:58;;;;;;;0.40;0.40;;;;;;;6.37;100.00;99240.41;5128211;28;20035;-64
2024/04/06 00:44:24;;;;;;;0.40;0.40;;;;;;;6.38;100.00;99244.69;5127775;28;20035;-65
2024/04/06 00:46:52;;;;;;;0.40;0.40;;;;;;;6.36;100.00;99269.59;5109678;28;20022;-64
2024/04/06 00:49:18;;;;;;;0.40;0.40;;;;;;;6.31;100.00;99274.81;5128012;28;20020;-64
2024/04/06 00:51:44;;;;;;;0.40;0.40;;;;;;;6.33;100.00;99285.09;5127994;28;20475;-64
2024/04/06 00:54:10;;;;;;;0.40;0.40;;;;;;;6.25;100.00;99284.31;5127256;28;20023;-64
2024/04/06 00:56:35;;;;;;;0.40;0.40;;;;;;;6.26;100.00;99304.09;5127494;28;20028;-64
2024/04/06 00:59:02;;;;;;;0.40;0.40;;;;;;;6.20;100.00;99303.25;5127634;28;20030;-64
2024/04/06 01:01:27;;;;;;;0.40;0.40;;;;;;;6.23;100.00;99306.69;5127470;28;20031;-64
2024/04/06 01:03:53;;;;;;;0.40;0.40;;;;;;;6.20;100.00;99302.41;5127220;28;20028;-64
2024/04/06 01:06:18;;;;;;;0.40;0.40;;;;;;;6.21;100.00;99327.31;5127536;28;20020;-64
2024/04/06 01:08:44;;;;;;;0.40;0.40;;;;;;;6.19;100.00;99337.66;5127264;28;20023;-65
2024/04/06 01:11:09;;;;;;;0.40;0.40;;;;;;;6.19;100.00;99345.38;5127427;28;20023;-64
2024/04/06 01:13:35;;;;;;;0.40;0.40;;;;;;;6.17;100.00;99339.38;5127351;28;20464;-64
2024/04/06 01:16:00;;;;;;;0.40;0.40;;;;;;;6.16;100.00;99353.13;5127259;28;20019;-64
2024/04/06 01:18:26;;;;;;;0.32;0.32;;;;;;;6.13;100.00;99357.44;5127156;28;20031;-65
2024/04/06 01:20:53;;;;;;;0.40;0.40;;;;;;;6.14;100.00;99372.91;5127257;28;20062;-64
2024/04/06 01:23:19;;;;;;;0.40;0.40;;;;;;;6.15;100.00;99373.75;5127147;28;20079;-64
2024/04/06 01:25:45;;;;;;;0.40;0.40;;;;;;;6.16;100.00;99370.31;5127121;28;20031;-65
2024/04/06 01:28:10;;;;;;;0.40;0.40;;;;;;;6.18;100.00;99371.16;5127181;28;20055;-64
2024/04/06 01:30:37;;;;;;;0.40;0.40;;;;;;;6.19;100.00;99378.00;5127090;28;20467;-64
2024/04/06 01:33:03;;;;;;;0.40;0.40;;;;;;;6.19;100.00;99378.88;5126947;28;20432;-64
2024/04/06 01:35:28;;;;;;;0.40;0.40;;;;;;;6.19;100.00;99380.59;5126987;28;20446;-64
2024/04/06 01:37:53;;;;;;;0.40;0.40;;;;;;;6.16;100.00;99398.66;5126809;28;20016;-64
2024/04/06 01:40:19;;;;;;;0.40;0.40;;;;;;;6.09;100.00;99402.97;5126482;28;20117;-64
2024/04/06 01:42:44;;;;;;;0.40;0.40;;;;;;;6.05;100.00;99409.03;5126723;28;20069;-64
2024/04/06 01:45:09;;;;;;;0.40;0.40;;;;;;;5.98;100.00;99407.31;5126037;28;20031;-65
2024/04/06 01:47:35;;;;;;;0.40;0.40;;;;;;;5.90;100.00;99417.66;5125037;28;20028;-64
2024/04/06 01:50:06;;;;;;;0.40;0.40;;;;;;;5.87;100.00;99420.25;5126330;28;20019;-64
2024/04/06 01:52:32;;;;;;;0.40;0.40;;;;;;;5.77;100.00;99416.84;5126526;28;20031;-64
2024/04/06 01:54:59;;;;;;;0.40;0.40;;;;;;;5.74;100.00;99424.59;5126542;28;20028;-64
2024/04/06 01:57:25;;;;;;;0.40;0.40;;;;;;;5.67;100.00;99439.25;5126545;28;20075;-64
2024/04/06 01:59:50;;;;;;;0.40;0.40;;;;;;;5.58;100.00;99440.13;5126384;28;20034;-65
2024/04/06 02:02:16;;;;;;;0.40;0.40;;;;;;;5.55;100.00;99453.00;5117893;28;20072;-64
2024/04/06 02:04:41;;;;;;;0.40;0.40;;;;;;;5.53;100.00;99459.88;5126284;28;20031;-64
2024/04/06 02:07:07;;;;;;;0.40;0.40;;;;;;;5.47;100.00;99471.06;5124801;28;20023;-65
2024/04/06 02:09:32;;;;;;;0.40;0.40;;;;;;;5.48;100.00;99471.91;5125961;28;20038;-64
2024/04/06 02:11:58;;;;;;;0.40;0.40;;;;;;;5.44;100.00;99482.22;5126543;28;20051;-64
2024/04/06 02:14:23;;;;;;;0.40;0.40;;;;;;;5.40;100.00;99482.25;5126122;28;20463;-64
2024/04/06 02:16:48;;;;;;;0.40;0.40;;;;;;;5.40;100.00;99493.38;5126219;28;20047;-64
2024/04/06 02:19:14;;;;;;;0.40;0.40;;;;;;;5.42;100.00;99501.97;5126029;28;20027;-65
2024/04/06 02:21:39;;;;;;;0.40;0.40;;;;;;;5.39;100.00;99501.09;5126373;28;20020;-65
2024/04/06 02:24:05;;;;;;;0.40;0.40;;;;;;;5.38;100.00;99513.13;5124331;28;20031;-65
2024/04/06 02:26:31;;;;;;;0.40;0.40;;;;;;;5.39;100.00;99529.41;5125800;28;20581;-65
2024/04/06 02:28:56;;;;;;;0.50;0.50;;;;;;;5.35;100.00;99528.59;5124699;28;20019;-64
2024/04/06 02:31:22;;;;;;;0.40;0.40;;;;;;;5.31;100.00;99526.84;5125889;28;20024;-64
2024/04/06 02:33:48;;;;;;;0.40;0.40;;;;;;;5.27;100.00;99531.13;5125669;28;20451;-64
2024/04/06 02:36:13;;;;;;;0.40;0.40;;;;;;;5.23;100.00;99546.56;5124192;28;20023;-65
2024/04/06 02:38:39;;;;;;;0.40;0.40;;;;;;;5.24;100.00;99556.03;5125492;28;20019;-65
2024/04/06 02:41:04;;;;;;;0.40;0.40;;;;;;;5.18;100.00;99565.47;5125509;28;20048;-64
2024/04/06 02:43:29;;;;;;;0.40;0.40;;;;;;;5.11;100.00;99556.03;5124253;28;20027;-65
2024/04/06 02:45:55;;;;;;;0.40;0.40;;;;;;;5.12;100.00;99560.31;5125923;28;20570;-63
2024/04/06 02:48:20;;;;;;;0.38;0.38;;;;;;;5.13;100.00;99563.75;5125624;28;20015;-63
2024/04/06 02:50:45;;;;;;;0.40;0.40;;;;;;;5.09;100.00;99562.88;5125833;28;20024;-64
2024/04/06 02:53:11;;;;;;;0.40;0.40;;;;;;;5.08;100.00;99569.75;5125508;28;20027;-64
2024/04/06 02:55:37;;;;;;;0.40;0.40;;;;;;;5.10;100.00;99574.06;5125523;28;20024;-65
2024/04/06 02:58:02;;;;;;;0.40;0.40;;;;;;;5.05;100.00;99576.59;5125499;28;20028;-64
2024/04/06 03:00:28;;;;;;;0.40;0.40;;;;;;;4.98;100.00;99586.03;5125209;28;20024;-64
2024/04/06 03:02:53;;;;;;;0.40;0.40;;;;;;;4.93;100.00;99593.75;5125429;28;20020;-64
2024/04/06 03:05:19;;;;;;;0.40;0.40;;;;;;;4.89;100.00;99597.16;5125567;28;20031;-64
2024/04/06 03:07:44;;;;;;;0.40;0.40;;;;;;;4.86;100.00;99599.72;5125368;28;20015;-64
2024/04/06 03:10:10;;;;;;;0.40;0.40;;;;;;;4.83;100.00;99599.72;5123667;28;20096;-64
2024/04/06 03:12:36;;;;;;;0.40;0.40;;;;;;;4.83;100.00;99602.28;5125397;28;20111;-64
2024/04/06 03:15:01;;;;;;;0.40;0.40;;;;;;;4.79;100.00;99605.72;5125519;28;20078;-64
2024/04/06 03:17:26;;;;;;;0.40;0.40;;;;;;;4.81;100.00;99622.88;5123994;28;20051;-64
2024/04/06 03:19:52;;;;;;;0.40;0.40;;;;;;;4.78;100.00;99620.28;5125198;28;20481;-64
2024/04/06 03:22:17;;;;;;;0.40;0.40;;;;;;;4.72;100.00;99615.13;5125133;28;20019;-64
2024/04/06 03:24:42;;;;;;;0.50;0.50;;;;;;;4.71;100.00;99628.84;5123516;28;20023;-64
2024/04/06 03:27:08;;;;;;;0.40;0.40;;;;;;;4.64;100.00;99614.25;5125449;28;20611;-63
2024/04/06 03:29:33;;;;;;;0.50;0.50;;;;;;;4.65;100.00;99614.25;5123814;28;20063;-63
2024/04/06 03:31:58;;;;;;;0.40;0.40;;;;;;;4.62;100.00;99621.94;5125463;28;20107;-63
2024/04/06 03:34:24;;;;;;;0.40;0.40;;;;;;;4.57;100.00;99627.06;5125376;28;20435;-64
2024/04/06 03:36:49;;;;;;;0.40;0.40;;;;;;;4.62;100.00;99641.69;5125275;28;20030;-64
2024/04/06 03:39:15;;;;;;;0.40;0.40;;;;;;;4.63;100.00;99635.66;5125082;28;20051;-64
2024/04/06 03:41:41;;;;;;;0.40;0.40;;;;;;;4.63;100.00;99639.09;5125147;28;20023;-63
2024/04/06 03:44:06;;;;;;;0.40;0.40;;;;;;;4.62;100.00;99649.38;5123363;28;20126;-63
2024/04/06 03:46:31;;;;;;;0.40;0.40;;;;;;;4.65;100.00;99659.69;5125280;28;20031;-64
2024/04/06 03:48:57;;;;;;;0.40;0.40;;;;;;;4.64;100.00;99660.53;5125022;28;20522;-63
2024/04/06 03:51:23;;;;;;;0.40;0.40;;;;;;;4.64;100.00;99653.66;5123708;28;20024;-63
2024/04/06 03:53:49;;;;;;;0.50;0.50;;;;;;;4.66;100.00;99664.84;5125154;28;20080;-63
2024/04/06 03:56:14;;;;;;;0.40;0.40;;;;;;;4.63;100.00;99662.25;5124854;28;20028;-63
2024/04/06 03:58:39;;;;;;;0.40;0.40;;;;;;;4.58;100.00;99671.66;5125037;28;20020;-63
2024/04/06 04:01:05;;;;;;;0.40;0.40;;;;;;;4.66;100.00;99687.97;5124826;28;20456;-64
2024/04/06 04:03:30;;;;;;;0.50;0.50;;;;;;;4.65;100.00;99687.97;5123567;28;20023;-63
2024/04/06 04:05:56;;;;;;;0.40;0.40;;;;;;;4.62;100.00;99685.38;5125112;28;20023;-63
2024/04/06 04:08:21;;;;;;;0.40;0.40;;;;;;;4.62;100.00;99693.94;5127180;28;20051;-63
2024/04/06 04:10:47;;;;;;;0.40;0.40;;;;;;;4.58;100.00;99694.78;5126966;28;20031;-63
2024/04/06 04:13:13;;;;;;;0.40;0.40;;;;;;;4.57;100.00;99709.34;5128654;28;20023;-63
2024/04/06 04:15:41;;;;;;;0.45;0.45;;;;;;;4.53;100.00;99706.75;5128738;28;20428;-63
2024/04/06 04:18:07;;;;;;;0.40;0.40;;;;;;;4.54;100.00;99718.75;5128700;28;20027;-63
2024/04/06 04:20:33;;;;;;;0.40;0.40;;;;;;;4.51;100.00;99718.72;5128484;28;20061;-63
2024/04/06 04:23:00;;;;;;;0.40;0.40;;;;;;;4.51;100.00;99735.03;5128208;28;20023;-63
2024/04/06 04:25:27;;;;;;;0.40;0.40;;;;;;;4.46;100.00;99736.69;5128346;28;20015;-62
2024/04/06 04:27:53;;;;;;;0.40;0.40;;;;;;;4.42;100.00;99750.41;5128311;28;20055;-62
2024/04/06 04:30:19;;;;;;;0.40;0.40;;;;;;;4.44;100.00;99759.81;5126800;28;20065;-64
2024/04/06 04:32:44;;;;;;;0.45;0.45;;;;;;;4.35;100.00;99754.63;5128400;28;20130;-64
2024/04/06 04:35:09;;;;;;;0.40;0.40;;;;;;;4.31;100.00;99756.31;5128234;28;20032;-64
2024/04/06 04:37:35;;;;;;;0.38;0.38;;;;;;;4.26;100.00;99765.72;5128004;28;20086;-64
2024/04/06 04:40:00;;;;;;;0.40;0.40;;;;;;;4.18;100.00;99752.81;5127699;28;20050;-64
2024/04/06 04:42:25;;;;;;;0.50;0.50;;;;;;;4.27;100.00;99763.97;5127885;28;20068;-63
2024/04/06 04:44:51;;;;;;;0.40;0.40;;;;;;;4.26;100.00;99765.72;5126060;28;20024;-63
2024/04/06 04:47:17;;;;;;;0.40;0.40;;;;;;;4.27;100.00;99781.97;5128111;28;20057;-63
2024/04/06 04:49:43;;;;;;;0.40;0.40;;;;;;;4.20;100.00;99779.34;5127888;28;20459;-63
2024/04/06 04:52:08;;;;;;;0.40;0.40;;;;;;;4.18;100.00;99780.22;5127868;28;20049;-64
2024/04/06 04:54:34;;;;;;;0.40;0.40;;;;;;;4.17;100.00;99787.03;5126268;28;20539;-63
2024/04/06 04:56:59;;;;;;;0.40;0.40;;;;;;;4.10;100.00;99775.00;5127899;28;20019;-63
2024/04/06 04:59:25;;;;;;;0.40;0.40;;;;;;;4.11;100.00;99775.84;5127918;28;20016;-63
2024/04/06 05:01:50;;;;;;;0.40;0.40;;;;;;;4.16;100.00;99797.31;5126264;28;20023;-64
2024/04/06 05:04:15;;;;;;;0.40;0.40;;;;;;;4.15;100.00;99806.75;5127579;28;20030;-65
2024/04/06 05:06:41;;;;;;;0.50;0.50;;;;;;;4.14;100.00;99811.88;5126415;28;20019;-65
2024/04/06 05:09:10;;;;;;;0.40;0.40;;;;;;;4.15;100.00;99808.44;5127317;28;20514;-63
2024/04/06 05:11:35;;;;;;;0.40;0.40;;;;;;;4.14;100.00;99812.72;5127411;28;20083;-63
2024/04/06 05:14:01;;;;;;;0.40;0.40;;;;;;;4.17;100.00;99819.59;5127662;28;20016;-64
2024/04/06 05:16:26;;;;;;;0.40;0.40;;;;;;;4.15;100.00;99819.59;5127291;28;20059;-64
2024/04/06 05:18:51;;;;;;;0.45;0.45;;;;;;;4.13;100.00;99818.72;5126165;28;20080;-64
2024/04/06 05:21:17;;;;;;;0.50;0.50;;;;;;;4.12;100.00;99832.38;5125976;28;20096;-64
2024/04/06 05:23:42;;;;;;;0.43;0.43;;;;;;;4.09;100.00;99840.94;5126980;28;20028;-65
2024/04/06 05:26:07;;;;;;;0.40;0.40;;;;;;;4.04;100.00;99844.31;5127114;28;20023;-64
2024/04/06 05:28:33;;;;;;;0.40;0.40;;;;;;;4.04;100.00;99857.16;5127252;28;20024;-64
2024/04/06 05:30:58;;;;;;;0.50;0.50;;;;;;;4.04;100.00;99857.16;5127046;28;20078;-64
2024/04/06 05:33:24;;;;;;;0.50;0.50;;;;;;;4.03;100.00;99868.28;5127166;28;20027;-65
2024/04/06 05:35:50;;;;;;;0.40;0.40;;;;;;;4.06;100.00;99866.59;5127164;28;20019;-65
2024/04/06 05:38:17;;;;;;;0.40;0.40;;;;;;;4.06;100.00;99869.16;5126955;28;20046;-64
2024/04/06 05:40:44;;;;;;;0.40;0.40;;;;;;;4.07;100.00;99868.31;5126702;28;20051;-64
2024/04/06 05:43:10;;;;;;;0.40;0.40;;;;;;;4.09;100.00;99874.34;5126799;28;20039;-65
2024/04/06 05:45:37;;;;;;;0.40;0.40;;;;;;;4.09;100.00;99882.03;5126797;28;20024;-65
2024/04/06 05:48:05;;;;;;;0.40;0.40;;;;;;;4.07;100.00;99895.72;5126686;28;20031;-64
2024/04/06 05:50:31;;;;;;;0.50;0.50;;;;;;;4.06;100.00;99896.56;5126542;28;20030;-65
2024/04/06 05:52:57;;;;;;;0.40;0.40;;;;;;;4.08;100.00;99900.88;5126741;28;20061;-65
2024/04/06 05:55:23;;;;;;;0.40;0.40;;;;;;;4.08;100.00;99895.75;5126498;28;20030;-65
2024/04/06 05:57:48;;;;;;;0.40;0.40;;;;;;;4.15;100.00;99893.22;5126660;28;20087;-65
2024/04/06 06:00:15;;;;;;;0.40;0.40;;;;;;;4.16;100.00;99888.09;5124765;28;20045;-64
2024/04/06 06:02:41;;;;;;;0.40;0.40;;;;;;;4.18;100.00;99886.44;5126551;28;20112;-64
2024/04/06 06:05:06;;;;;;;0.40;0.40;;;;;;;4.12;100.00;99873.50;5124974;28;20411;-66
2024/04/06 06:07:32;;;;;;;0.50;0.50;;;;;;;4.27;100.00;99893.34;5125239;28;20020;-65
2024/04/06 06:09:57;;;;;;;0.50;0.50;;;;;;;4.25;100.00;99891.63;5125904;28;20024;-65
2024/04/06 06:12:24;;;;;;;0.40;0.40;;;;;;;4.32;100.00;99895.94;5126536;28;20023;-64
2024/04/06 06:14:49;;;;;;;0.40;0.40;;;;;;;4.37;100.00;99899.44;5126140;28;20019;-64
2024/04/06 06:17:15;;;;;;;0.40;0.40;;;;;;;4.43;100.00;99902.06;5126085;28;20045;-63
2024/04/06 06:19:40;;;;;;;0.40;0.40;;;;;;;4.49;100.00;99903.81;5126083;28;20038;-65
2024/04/06 06:22:06;;;;;;;0.40;0.40;;;;;;;4.52;100.00;99905.56;5126333;28;20349;-64
2024/04/06 06:24:31;;;;;;;0.40;0.40;;;;;;;4.62;100.00;99911.66;5125828;28;20102;-64
2024/04/06 06:26:56;;;;;;;0.40;0.40;;;;;;;4.64;100.00;99910.78;5125873;28;20019;-64
2024/04/06 06:29:22;;;;;;;0.40;0.40;;;;;;;4.65;100.00;99917.66;5126074;28;20023;-63
2024/04/06 06:31:47;;;;;;;0.40;0.40;;;;;;;4.70;100.00;99917.69;5125763;28;20085;-63
2024/04/06 06:34:12;;;;;;;0.47;0.47;;;;;;;4.80;100.00;99922.06;5125840;28;20024;-64
2024/04/06 06:36:39;;;;;;;0.40;0.40;;;;;;;4.85;100.00;99916.94;5126057;28;20097;-63
2024/04/06 06:39:04;;;;;;;0.40;0.40;;;;;;;4.84;100.00;99918.66;5125655;28;20027;-63
2024/04/06 06:41:29;;;;;;;0.40;0.40;;;;;;;4.82;100.00;99916.94;5125521;28;20040;-64
2024/04/06 06:43:55;;;;;;;0.32;0.32;;;;;;;4.90;100.00;99920.44;5125937;28;20024;-65
2024/04/06 06:46:20;;;;;;;0.40;0.40;;;;;;;4.95;100.00;99908.44;5125795;28;20066;-64
2024/04/06 06:48:45;;;;;;;0.40;0.40;;;;;;;4.98;100.00;99909.31;5125812;28;20031;-64
2024/04/06 06:51:11;;;;;;;0.40;0.40;;;;;;;4.94;100.00;99905.84;5125724;28;20110;-63
2024/04/06 06:53:36;;;;;;;0.40;0.40;;;;;;;4.94;100.00;99914.44;5125801;28;20019;-65
2024/04/06 06:56:02;;;;;;;0.40;0.40;;;;;;;5.07;100.00;99923.09;5124034;28;20035;-63
2024/04/06 06:58:27;;;;;;;0.40;0.40;;;;;;;5.10;100.00;99929.13;5125763;28;20030;-63
2024/04/06 07:00:52;;;;;;;0.40;0.40;;;;;;;5.10;100.00;99932.53;5125412;28;20037;-63
2024/04/06 07:03:18;;;;;;;0.30;0.30;;;;;;;5.09;100.00;99933.41;5123825;28;20044;-64
2024/04/06 07:05:43;;;;;;;0.50;0.50;;;;;;;5.06;100.00;99948.81;5125345;28;20023;-64
2024/04/06 07:08:08;;;;;;;0.40;0.40;;;;;;;4.98;100.00;99935.91;5125514;28;20023;-64
2024/04/06 07:10:40;;;;;;;0.50;0.50;;;;;;;5.14;100.00;99964.31;5125122;28;20031;-65
2024/04/06 07:13:06;;;;;;;0.40;0.40;;;;;;;5.23;100.00;99973.78;5125352;28;20011;-63
2024/04/06 07:15:34;;;;;;;0.40;0.40;;;;;;;5.27;100.00;99970.41;5125368;28;20032;-64
2024/04/06 07:17:59;;;;;;;0.40;0.40;;;;;;;5.29;100.00;99972.13;5125218;28;20020;-64
2024/04/06 07:20:25;;;;;;;0.40;0.40;;;;;;;5.39;100.00;99993.66;5125323;28;20020;-64
2024/04/06 07:22:50;;;;;;;0.40;0.40;;;;;;;5.41;100.00;100007.41;5125291;28;20058;-64
2024/04/06 07:25:17;;;;;;;0.40;0.40;;;;;;;5.40;100.00;100010.81;5125166;28;20039;-66
2024/04/06 07:27:43;;;;;;;0.40;0.40;;;;;;;5.34;100.00;100015.91;5125458;28;20028;-64
2024/04/06 07:30:08;;;;;;;0.40;0.40;;;;;;;5.24;100.00;100009.84;5125120;28;20068;-65
2024/04/06 07:32:34;;;;;;;0.40;0.40;;;;;;;5.22;100.00;100006.41;5125431;28;20023;-64
2024/04/06 07:35:00;;;;;;;0.40;0.40;;;;;;;5.25;100.00;100018.44;5125487;28;20027;-64
2024/04/06 07:37:26;;;;;;;0.40;0.40;;;;;;;5.26;100.00;100027.88;5125571;28;20090;-64
2024/04/06 07:39:51;;;;;;;0.40;0.40;;;;;;;5.21;100.00;100022.69;5124716;28;20487;-64
2024/04/06 07:42:16;;;;;;;0.40;0.40;;;;;;;5.17;100.00;100021.81;5126370;28;20023;-65
2024/04/06 07:44:42;;;;;;;0.40;0.40;;;;;;;5.17;100.00;100028.66;5127861;28;20107;-64
2024/04/06 07:47:08;;;;;;;0.50;0.50;;;;;;;5.13;100.00;100032.09;5129391;28;20058;-65
2024/04/06 07:49:33;;;;;;;0.40;0.40;;;;;;;5.16;100.00;100043.25;5129263;28;20028;-63
2024/04/06 07:51:58;;;;;;;0.40;0.40;;;;;;;5.14;100.00;100047.53;5129322;28;20024;-61
2024/04/06 07:54:24;;;;;;;0.40;0.40;;;;;;;5.10;100.00;100050.91;5127698;28;20024;-62
2024/04/06 07:56:49;;;;;;;0.40;0.40;;;;;;;5.10;100.00;100047.50;5128862;28;20019;-63
2024/04/06 07:59:14;;;;;;;0.40;0.40;;;;;;;5.12;100.00;100051.78;5128580;28;20186;-64
2024/04/06 08:01:40;;;;;;;0.40;0.40;;;;;;;5.15;100.00;100056.09;5129006;28;20026;-63
2024/04/06 08:04:05;;;;;;;0.50;0.50;;;;;;;5.18;100.00;100064.72;5128672;28;20193;-63
2024/04/06 08:06:30;;;;;;;0.40;0.40;;;;;;;5.20;100.00;100063.03;5128976;28;20051;-62
2024/04/06 08:08:56;;;;;;;0.40;0.40;;;;;;;5.12;100.00;100041.50;5127141;28;20436;-62
2024/04/06 08:11:21;;;;;;;0.40;0.40;;;;;;;5.25;100.00;100057.91;5128497;28;20023;-63
2024/04/06 08:13:47;;;;;;;0.40;0.40;;;;;;;5.37;100.00;100067.41;5128630;28;20024;-63
2024/04/06 08:16:12;;;;;;;0.40;0.40;;;;;;;5.48;100.00;100070.06;5128747;28;20027;-63
2024/04/06 08:18:38;;;;;;;0.40;0.40;;;;;;;5.46;100.00;100058.94;5128650;28;20034;-62
2024/04/06 08:21:04;;;;;;;0.40;0.40;;;;;;;5.62;100.00;100077.03;5128479;28;20024;-62
2024/04/06 08:23:29;;;;;;;0.40;0.40;;;;;;;5.71;100.00;100095.13;5128374;28;20121;-62
2024/04/06 08:25:55;;;;;;;0.40;0.40;;;;;;;5.75;100.00;100091.72;5128101;28;20039;-61
2024/04/06 08:28:20;;;;;;;0.40;0.40;;;;;;;5.81;100.00;100084.03;5128071;28;20075;-63
2024/04/06 08:30:46;;;;;;;0.40;0.40;;;;;;;5.93;100.00;100102.97;5128079;28;20129;-63
2024/04/06 08:33:11;;;;;;;0.40;0.40;;;;;;;5.95;100.00;100111.59;5128141;28;20058;-61
2024/04/06 08:35:37;;;;;;;0.40;0.40;;;;;;;5.97;100.00;100116.75;5128059;28;20023;-63
2024/04/06 08:38:04;;;;;;;0.40;0.40;;;;;;;5.94;100.00;100115.03;5127902;28;20071;-61
2024/04/06 08:40:30;;;;;;;0.40;0.40;;;;;;;6.05;100.00;100128.84;5127480;28;20051;-61
2024/04/06 08:43:02;;;;;;;0.45;0.45;;;;;;;6.09;100.00;100140.06;5127908;28;20061;-62
2024/04/06 08:45:28;;;;;;;;;;;;;;;6.11;100.00;100140.06;5126982;28;20471;-60
2024/04/06 08:47:55;;;;;;;0.40;0.40;;;;;;;6.12;100.00;100150.38;5127828;28;20002;-60
2024/04/06 08:50:20;;;;;;;0.40;0.40;;;;;;;6.12;100.00;100155.53;5127742;28;20016;-61
2024/04/06 08:52:45;;;;;;;0.40;0.40;;;;;;;6.10;100.00;100143.50;5126448;28;20023;-62
2024/04/06 08:55:11;;;;;;;0.40;0.40;;;;;;;6.20;100.00;100153.00;5127440;28;20086;-61
2024/04/06 08:57:38;;;;;;;0.40;0.40;;;;;;;6.16;100.00;100146.97;5127866;28;20063;-62
2024/04/06 09:00:07;;;;;;;0.43;0.43;;;;;;;6.13;100.00;100144.38;5127495;28;20027;-62
2024/04/06 09:02:35;;;;;;;0.40;0.40;;;;;;;6.22;100.00;100145.28;5127556;28;20020;-61
2024/04/06 09:05:01;;;;;;;0.40;0.40;;;;;;;6.35;100.00;100152.22;5127752;28;20058;-62
2024/04/06 09:07:27;;;;;;;0.30;0.30;;;;;;;6.41;100.00;100144.53;5127921;28;20020;-63
2024/04/06 09:09:53;;;;;;;0.40;0.40;;;;;;;6.55;100.00;100154.03;5126924;28;20030;-63
2024/04/06 09:12:18;;;;;;;0.40;0.40;;;;;;;6.62;100.00;100149.75;5127573;28;20023;-63
2024/04/06 09:14:46;;;;;;;0.40;0.40;;;;;;;6.78;100.00;100148.97;5125782;28;20023;-63
2024/04/06 09:17:15;;;;;;;0.40;0.40;;;;;;;6.86;100.00;100148.97;5125855;28;20126;-63
2024/04/06 09:19:41;;;;;;;0.40;0.40;;;;;;;6.97;100.00;100161.91;5127220;28;20028;-63
2024/04/06 09:22:07;;;;;;;0.40;0.40;;;;;;;7.09;100.00;100165.38;5127414;28;20023;-63
2024/04/06 09:24:33;;;;;;;0.32;0.32;;;;;;;7.16;100.00;100167.09;5125987;28;20023;-63
2024/04/06 09:27:13;;;;;;;0.40;0.40;;;;;;;7.23;100.00;100166.28;5126970;28;20378;-62
2024/04/06 09:29:46;;;;;;;0.40;0.40;;;;;;;7.26;100.00;100168.84;5127356;28;20023;-61
2024/04/06 09:32:14;;;;;;;0.40;0.40;;;;;;;7.39;100.00;100169.72;5127258;28;20039;-63
2024/04/06 09:34:49;;;;;;;0.40;0.40;;;;;;;7.59;100.00;100179.19;5125757;28;20028;-63
2024/04/06 09:37:21;;;;;;;0.40;0.40;;;;;;;7.86;100.00;100177.47;5127079;28;20061;-64
2024/04/06 09:39:47;;;;;;;0.50;0.50;;;;;;;8.25;100.00;100187.75;5126842;28;20471;-63
2024/04/06 09:42:14;;;;;;;0.40;0.40;;;;;;;8.59;100.00;100176.47;5126929;28;20023;-63
2024/04/06 09:44:41;;;;;;;0.40;0.40;;;;;;;9.41;100.00;100182.91;5126972;28;20019;-64
2024/04/06 09:47:12;;;;;;;0.40;0.40;;;;;;;10.15;100.00;100175.38;5127211;28;20031;-64
2024/04/06 09:49:38;;;;;;;0.40;0.40;;;;;;;10.54;100.00;100176.72;5126999;28;20030;-63
2024/04/06 09:52:04;;;;;;;0.30;0.30;;;;;;;10.65;100.00;100174.81;5127156;28;20024;-63
2024/04/06 09:54:31;;;;;;;0.38;0.38;;;;;;;11.15;100.00;100163.78;5126844;28;20012;-62
2024/04/06 09:56:58;;;;;;;0.30;0.30;;;;;;;12.26;100.00;100180.19;5126577;28;20023;-63
2024/04/06 09:59:27;;;;;;;0.30;0.30;;;;;;;13.21;100.00;100186.91;5126735;28;20030;-62
2024/04/06 10:01:54;;;;;;;0.30;0.30;;;;;;;13.58;100.00;100188.66;5126862;28;20027;-62
2024/04/06 10:04:38;;;;;;;0.30;0.30;;;;;;;14.24;100.00;100200.06;5126596;28;20031;-62
2024/04/06 10:07:05;;;;;;;0.30;0.30;;;;;;;14.99;100.00;100201.47;5126478;28;20019;-64
2024/04/06 10:09:37;;;;;;;0.30;0.30;;;;;;;16.16;100.00;100209.09;5126366;28;20019;-63
2024/04/06 10:12:06;;;;;;;0.28;0.28;;;;;;;16.65;97.24;100205.59;5126370;28;20027;-63
2024/04/06 10:14:43;;;;;;;0.20;0.20;;;;;;;16.98;94.97;100206.09;5126262;28;20015;-62
2024/04/06 10:17:12;;;;;;;0.20;0.20;;;;;;;17.11;94.68;100208.28;5125095;28;20015;-63
2024/04/06 10:19:38;;;;;;;0.20;0.20;;;;;;;17.63;94.38;100201.00;5126421;28;20498;-64
2024/04/06 10:22:05;;;;;;;0.20;0.20;;;;;;;17.81;91.13;100202.84;5126295;28;20031;-63
2024/04/06 10:24:31;;;;;;;0.28;0.28;;;;;;;17.54;86.72;100208.31;5126260;28;20418;-63
2024/04/06 10:26:57;;;;;;;0.43;0.43;;;;;;;17.37;89.02;100210.78;5126273;28;20027;-63
2024/04/06 10:29:23;;;;;;;0.20;0.20;;;;;;;17.46;89.58;100206.00;5126352;28;20091;-62
2024/04/06 10:31:49;;;;;;;0.20;0.20;;;;;;;17.79;89.01;100214.34;5126362;28;20028;-62
2024/04/06 10:34:16;;;;;;;0.20;0.20;;;;;;;18.50;87.71;100202.56;5126027;28;20478;-62
2024/04/06 10:36:42;;;;;;;0.20;0.20;;;;;;;19.46;84.86;100209.56;5126134;28;20331;-62
2024/04/06 10:39:10;;;;;;;0.20;0.20;;;;;;;20.31;80.70;100207.09;5125893;28;20027;-63
2024/04/06 10:41:38;;;;;;;0.10;0.10;;;;;;;20.97;79.59;100186.94;5125757;28;20058;-63
2024/04/06 10:44:04;;;;;;;0.10;0.10;;;;;;;21.70;78.06;100203.06;5126333;28;20035;-62
2024/04/06 10:46:29;;;;;;;0.10;0.10;;;;;;;21.49;74.39;100217.44;5125928;28;20027;-62
2024/04/06 10:48:55;;;;;;;0.20;0.20;;;;;;;21.44;72.25;100219.50;5126251;28;20031;-62
2024/04/06 10:51:23;;;;;;;0.10;0.10;;;;;;;20.87;74.18;100212.94;5125931;28;20027;-62
2024/04/06 10:53:49;;;;;;;0.20;0.20;;;;;;;20.08;77.86;100218.81;5125970;28;20096;-63
2024/04/06 10:56:14;;;;;;;0.20;0.20;;;;;;;19.45;78.13;100223.66;5125888;28;20027;-63
2024/04/06 10:58:40;;;;;;;0.20;0.20;;;;;;;18.79;77.40;100218.78;5125817;28;20019;-63
2024/04/06 11:01:13;;;;;;;0.30;0.30;;;;;;;17.55;73.69;100217.94;5125707;28;20066;-62
2024/04/06 11:03:38;;;;;;;0.20;0.20;;;;;;;16.16;75.46;100224.81;5125725;28;20428;-62
2024/04/06 11:06:04;;;;;;;0.20;0.20;;;;;;;15.33;76.40;100230.94;5124445;28;20462;-63
2024/04/06 11:08:29;;;;;;;0.20;0.20;;;;;;;14.93;81.98;100227.78;5125864;28;20164;-62
2024/04/06 11:10:55;;;;;;;0.30;0.30;;;;;;;15.07;85.20;100232.59;5125637;28;20033;-61
2024/04/06 11:13:22;;;;;;;0.20;0.20;;;;;;;15.58;84.97;100237.13;5125802;28;20020;-62
2024/04/06 11:15:49;;;;;;;0.20;0.20;;;;;;;16.34;85.26;100236.41;5125746;28;20024;-63
2024/04/06 11:18:15;;;;;;;0.25;0.25;;;;;;;16.95;84.14;100239.44;5128112;28;20031;-62
2024/04/06 11:20:41;;;;;;;0.20;0.20;;;;;;;17.57;81.24;100244.09;5129945;28;20027;-62
2024/04/06 11:23:26;;;;;;;0.20;0.20;;;;;;;18.05;79.72;100251.78;5128403;28;20016;-63
2024/04/06 11:25:51;;;;;;;0.20;0.20;;;;;;;19.22;80.68;100246.66;5128966;28;20026;-63